createdAt,value
2024-01-19T00:01:13.836Z,68.40
2024-01-19T00:04:55.700Z,68.60
2024-01-19T00:08:37.706Z,68.70
2024-01-19T00:12:19.553Z,68.70
2024-01-19T00:16:01.651Z,68.90
2024-01-19T00:19:43.483Z,68.90
2024-01-19T00:23:25.299Z,69.00
2024-01-19T00:27:07.076Z,69.00
2024-01-19T00:30:48.868Z,69.10
2024-01-19T00:34:30.682Z,69.20
2024-01-19T00:38:12.824Z,69.10
2024-01-19T00:41:54.782Z,69.30
2024-01-19T00:45:37.542Z,69.40
2024-01-19T00:49:19.618Z,69.60
2024-01-19T00:53:01.442Z,69.40
2024-01-19T00:56:43.427Z,69.40
2024-01-19T01:00:25.737Z,69.20
2024-01-19T01:04:07.561Z,69.20
2024-01-19T01:07:49.401Z,69.30
2024-01-19T01:11:31.459Z,69.40
2024-01-19T01:15:15.477Z,69.50
2024-01-19T01:18:58.461Z,69.60
2024-01-19T01:22:40.382Z,69.60
2024-01-19T01:26:22.165Z,69.70
2024-01-19T01:30:08.548Z,69.70
2024-01-19T01:33:50.532Z,69.60
2024-01-19T01:37:32.419Z,69.90
2024-01-19T01:41:14.295Z,69.90
2024-01-19T01:44:56.290Z,70.20
2024-01-19T01:48:38.303Z,70.20
2024-01-19T01:52:20.221Z,70.10
2024-01-19T01:56:02.916Z,70.20
2024-01-19T01:59:44.877Z,70.40
2024-01-19T02:03:27.355Z,70.30
2024-01-19T02:07:09.772Z,70.50
2024-01-19T02:10:51.761Z,70.40
2024-01-19T02:14:34.053Z,70.40
2024-01-19T02:18:16.048Z,70.50
2024-01-19T02:21:57.979Z,70.60
2024-01-19T02:25:40.158Z,70.50
2024-01-19T02:29:21.981Z,70.60
2024-01-19T02:33:04.800Z,70.70
2024-01-19T02:36:46.767Z,70.50
2024-01-19T02:40:28.559Z,70.70
2024-01-19T02:44:10.555Z,70.70
2024-01-19T02:47:52.412Z,70.70
2024-01-19T02:51:34.382Z,70.70
2024-01-19T02:55:16.280Z,70.80
2024-01-19T02:58:58.079Z,70.90
2024-01-19T03:02:39.896Z,70.90
2024-01-19T03:06:21.812Z,71.10
2024-01-19T03:10:04.780Z,71.20
2024-01-19T03:13:46.538Z,71.30
2024-01-19T03:17:28.505Z,71.30
2024-01-19T03:21:12.016Z,71.30
2024-01-19T03:24:53.810Z,71.40
2024-01-19T03:28:35.573Z,71.50
2024-01-19T03:32:17.436Z,71.40
2024-01-19T03:36:01.415Z,71.70
2024-01-19T03:39:43.994Z,71.60
2024-01-19T03:43:25.859Z,71.70
2024-01-19T03:47:07.634Z,72.20
2024-01-19T03:50:49.469Z,71.90
2024-01-19T03:54:33.633Z,71.90
2024-01-19T03:58:15.550Z,72.00
2024-01-19T04:01:57.755Z,72.20
2024-01-19T04:05:39.586Z,72.80
2024-01-19T04:09:21.526Z,72.60
2024-01-19T04:13:03.433Z,72.70
2024-01-19T04:16:45.209Z,72.40
2024-01-19T04:20:26.964Z,72.50
2024-01-19T04:24:11.203Z,72.70
2024-01-19T04:27:53.306Z,72.90
2024-01-19T04:31:35.132Z,73.00
2024-01-19T04:35:16.872Z,72.80
2024-01-19T04:38:58.790Z,73.00
2024-01-19T04:42:40.757Z,72.80
2024-01-19T04:46:22.742Z,72.80
2024-01-19T04:50:04.880Z,73.20
2024-01-19T04:53:47.831Z,73.50
2024-01-19T04:57:29.623Z,73.20
2024-01-19T05:01:11.488Z,73.20
2024-01-19T05:04:53.341Z,73.40
2024-01-19T05:08:35.143Z,73.20
2024-01-19T05:12:16.946Z,73.20
2024-01-19T05:15:58.859Z,73.40
2024-01-19T05:19:40.674Z,73.50
2024-01-19T05:23:22.575Z,73.50
2024-01-19T05:27:04.633Z,73.50
2024-01-19T05:30:46.601Z,73.50
2024-01-19T05:34:29.007Z,74.00
2024-01-19T05:38:10.883Z,73.80
2024-01-19T05:41:52.717Z,73.50
2024-01-19T05:45:34.526Z,73.60
2024-01-19T05:49:16.420Z,73.60
2024-01-19T05:52:58.406Z,73.90
2024-01-19T05:56:40.322Z,73.90
2024-01-19T06:00:22.354Z,73.80
2024-01-19T06:04:04.307Z,74.20
2024-01-19T06:07:46.158Z,74.40
2024-01-19T06:11:28.579Z,74.30
2024-01-19T06:15:10.505Z,74.70
2024-01-19T06:18:52.433Z,74.80
2024-01-19T06:22:34.340Z,74.90
2024-01-19T06:26:16.406Z,74.90
2024-01-19T06:29:58.692Z,74.80
2024-01-19T06:33:40.790Z,74.80
2024-01-19T06:37:22.741Z,75.10
2024-01-19T06:41:05.234Z,75.00
2024-01-19T06:44:47.093Z,74.80
2024-01-19T06:48:29.029Z,75.20
2024-01-19T06:52:11.882Z,75.10
2024-01-19T06:55:53.633Z,75.30
2024-01-19T06:59:35.530Z,75.30
2024-01-19T07:03:17.351Z,75.80
2024-01-19T07:06:59.412Z,75.20
2024-01-19T07:10:41.644Z,75.40
2024-01-19T07:14:23.573Z,75.40
2024-01-19T07:18:05.534Z,75.20
2024-01-19T07:21:47.368Z,75.20
2024-01-19T07:25:29.233Z,75.40
2024-01-19T07:29:11.077Z,75.40
2024-01-19T07:33:01.633Z,75.20
2024-01-19T07:36:48.966Z,75.30
2024-01-19T07:40:30.804Z,75.40
2024-01-19T07:44:12.661Z,75.40
2024-01-19T07:47:54.590Z,75.40
2024-01-19T07:51:36.406Z,75.50
2024-01-19T07:55:18.261Z,75.80
2024-01-19T07:59:00.158Z,75.70
2024-01-19T08:02:42.834Z,75.70
2024-01-19T08:06:24.970Z,75.70
2024-01-19T08:10:07.269Z,75.60
2024-01-19T08:13:49.127Z,75.50
2024-01-19T08:17:31.330Z,75.50
2024-01-19T08:21:13.169Z,75.50
2024-01-19T08:24:55.047Z,75.50
2024-01-19T08:28:36.911Z,75.50
2024-01-19T08:32:18.918Z,75.70
2024-01-19T08:36:02.631Z,75.90
2024-01-19T08:39:47.623Z,75.90
2024-01-19T08:43:29.456Z,75.60
2024-01-19T08:47:12.079Z,75.60
2024-01-19T08:50:53.966Z,75.50
2024-01-19T08:54:35.728Z,75.40
2024-01-19T08:58:17.952Z,75.60
2024-01-19T09:01:59.882Z,75.70
2024-01-19T09:05:41.894Z,75.60
2024-01-19T09:09:23.824Z,76.10
2024-01-19T09:13:05.635Z,75.80
2024-01-19T09:16:47.409Z,75.70
2024-01-19T09:20:29.202Z,75.80
2024-01-19T09:24:11.708Z,76.40
2024-01-19T09:27:53.517Z,75.90
2024-01-19T09:31:43.056Z,76.70
2024-01-19T09:35:25.432Z,76.40
2024-01-19T09:39:07.877Z,77.10
2024-01-19T09:42:54.182Z,76.20
2024-01-19T09:46:55.600Z,76.30
2024-01-19T09:50:38.114Z,76.20
2024-01-19T09:54:33.915Z,76.20
2024-01-19T09:58:16.496Z,76.10
2024-01-19T10:01:58.855Z,76.10
2024-01-19T10:05:41.026Z,76.10
2024-01-19T10:09:24.601Z,76.30
2024-01-19T10:13:06.393Z,76.10
2024-01-19T10:16:54.336Z,76.40
2024-01-19T10:20:39.494Z,76.00
2024-01-19T10:24:21.709Z,76.80
2024-01-19T10:28:03.630Z,76.50
2024-01-19T10:31:51.066Z,76.10
2024-01-19T10:35:33.060Z,76.20
2024-01-19T10:39:19.487Z,76.10
2024-01-19T10:43:01.774Z,75.90
2024-01-19T10:46:44.279Z,75.60
2024-01-19T10:50:28.379Z,75.50
2024-01-19T10:54:16.682Z,75.40
2024-01-19T10:58:13.432Z,75.40
2024-01-19T11:02:00.340Z,75.40
2024-01-19T11:05:42.994Z,75.10
2024-01-19T11:09:25.173Z,75.00
2024-01-19T11:13:09.925Z,75.00
2024-01-19T11:16:54.133Z,75.10
2024-01-19T11:20:36.308Z,75.40
2024-01-19T11:24:20.066Z,75.60
2024-01-19T11:28:11.942Z,75.70
2024-01-19T11:31:54.555Z,75.80
2024-01-19T11:35:41.600Z,76.00
2024-01-19T11:39:43.088Z,76.20
2024-01-19T11:43:43.959Z,75.50
2024-01-19T11:47:38.036Z,75.70
2024-01-19T11:51:40.217Z,75.70
2024-01-19T11:55:28.121Z,74.40
2024-01-19T11:59:10.264Z,75.00
2024-01-19T12:02:56.612Z,75.00
2024-01-19T12:06:38.701Z,74.90
2024-01-19T12:10:20.720Z,74.60
2024-01-19T12:14:06.929Z,74.20
2024-01-19T12:17:49.053Z,73.90
2024-01-19T12:21:31.433Z,74.00
2024-01-19T12:25:17.884Z,74.20
2024-01-19T12:29:00.493Z,73.70
2024-01-19T12:32:43.172Z,73.30
2024-01-19T12:36:29.399Z,73.50
2024-01-19T12:40:19.968Z,72.60
2024-01-19T12:44:02.262Z,72.10
2024-01-19T12:47:49.550Z,72.60
2024-01-19T12:51:31.820Z,72.50
2024-01-19T12:55:14.300Z,72.00
2024-01-19T12:59:09.956Z,71.60
2024-01-19T13:02:56.384Z,70.20
2024-01-19T13:06:42.746Z,71.10
2024-01-19T13:10:24.667Z,71.40
2024-01-19T13:14:07.500Z,70.80
2024-01-19T13:17:49.919Z,69.30
2024-01-19T13:21:31.980Z,69.30
2024-01-19T13:25:13.806Z,69.30
2024-01-19T13:28:55.746Z,69.20
2024-01-19T13:32:37.719Z,69.10
2024-01-19T13:36:21.051Z,68.70
2024-01-19T13:40:06.177Z,68.60
2024-01-19T13:43:48.616Z,68.10
2024-01-19T13:47:30.556Z,67.80
2024-01-19T13:51:12.654Z,67.50
2024-01-19T13:54:54.482Z,67.20
2024-01-19T13:58:37.910Z,66.90
2024-01-19T14:02:20.515Z,66.30
2024-01-19T14:06:02.625Z,65.80
2024-01-19T14:09:45.275Z,64.50
2024-01-19T14:13:27.177Z,64.20
2024-01-19T14:17:10.750Z,63.90
2024-01-19T14:20:52.864Z,63.70
2024-01-19T14:24:35.366Z,63.10
2024-01-19T14:28:17.186Z,63.00
2024-01-19T14:32:00.596Z,63.10
2024-01-19T14:35:44.833Z,62.90
2024-01-19T14:39:26.681Z,63.00
2024-01-19T14:43:08.797Z,63.00
2024-01-19T14:46:52.121Z,62.90
2024-01-19T14:50:34.192Z,62.80
2024-01-19T14:54:16.469Z,63.00
2024-01-19T14:57:59.459Z,63.00
2024-01-19T15:01:41.354Z,63.10
2024-01-19T15:05:24.874Z,63.20
2024-01-19T15:09:07.014Z,63.30
2024-01-19T15:12:48.900Z,63.30
2024-01-19T15:16:31.349Z,63.40
2024-01-19T15:20:14.563Z,63.40
2024-01-19T15:23:56.428Z,63.50
2024-01-19T15:27:39.432Z,63.60
2024-01-19T15:31:22.764Z,63.70
2024-01-19T15:35:07.548Z,63.60
2024-01-19T15:38:49.376Z,63.60
2024-01-19T15:42:31.126Z,63.70
2024-01-19T15:46:12.930Z,63.80
2024-01-19T15:49:54.908Z,63.90
2024-01-19T15:53:36.959Z,64.00
2024-01-19T15:57:18.825Z,64.20
2024-01-19T16:01:00.647Z,64.30
2024-01-19T16:04:42.634Z,64.50
2024-01-19T16:08:24.769Z,64.60
2024-01-19T16:12:07.130Z,64.70
2024-01-19T16:15:48.912Z,64.90
2024-01-19T16:19:31.607Z,64.90
2024-01-19T16:23:13.757Z,65.10
2024-01-19T16:26:59.542Z,65.10
2024-01-19T16:30:42.610Z,65.30
2024-01-19T16:34:25.734Z,65.40
2024-01-19T16:38:07.670Z,65.50
2024-01-19T16:41:53.116Z,65.60
2024-01-19T16:45:34.973Z,65.80
2024-01-19T16:49:16.963Z,65.90
2024-01-19T16:52:58.850Z,66.00
2024-01-19T16:56:44.631Z,66.10
2024-01-19T17:00:26.529Z,66.20
2024-01-19T17:04:08.408Z,66.30
2024-01-19T17:07:50.298Z,66.40
2024-01-19T17:11:32.147Z,66.50
2024-01-19T17:15:14.152Z,66.60
2024-01-19T17:18:56.044Z,66.70
2024-01-19T17:22:38.048Z,66.80
2024-01-19T17:26:19.968Z,66.90
2024-01-19T17:30:01.830Z,67.00
2024-01-19T17:33:53.201Z,67.20
2024-01-19T17:37:42.279Z,67.30
2024-01-19T17:41:25.082Z,67.30
2024-01-19T17:45:16.235Z,67.30
2024-01-19T17:49:03.703Z,67.40
2024-01-19T17:52:46.364Z,67.40
2024-01-19T17:56:28.411Z,67.50
2024-01-19T18:00:10.583Z,67.50
2024-01-19T18:03:52.484Z,67.60
2024-01-19T18:07:34.649Z,67.60
2024-01-19T18:11:16.858Z,67.60
2024-01-19T18:14:59.763Z,67.60
2024-01-19T18:18:41.796Z,67.70
2024-01-19T18:22:25.039Z,67.60
2024-01-19T18:26:07.414Z,67.60
2024-01-19T18:29:50.508Z,67.60
2024-01-19T18:33:34.156Z,67.60
2024-01-19T18:37:15.981Z,67.70
2024-01-19T18:40:57.879Z,67.60
2024-01-19T18:44:39.695Z,67.80
2024-01-19T18:48:21.542Z,67.80
2024-01-19T18:52:04.040Z,67.90
2024-01-19T18:55:47.158Z,67.90
2024-01-19T18:59:29.310Z,68.00
2024-01-19T19:03:11.190Z,68.10
2024-01-19T19:06:53.039Z,68.10
2024-01-19T19:10:36.377Z,68.20
2024-01-19T19:14:21.326Z,68.20
2024-01-19T19:18:04.673Z,68.50
2024-01-19T19:21:47.301Z,68.40
2024-01-19T19:25:29.174Z,68.50
2024-01-19T19:29:11.089Z,68.60
2024-01-19T19:32:54.254Z,68.60
2024-01-19T19:36:36.184Z,68.70
2024-01-19T19:40:18.054Z,68.50
2024-01-19T19:43:59.939Z,68.40
2024-01-19T19:47:41.840Z,68.40
2024-01-19T19:51:23.723Z,68.30
2024-01-19T19:55:05.953Z,68.40
2024-01-19T19:58:47.864Z,68.50
2024-01-19T20:02:29.802Z,68.50
2024-01-19T20:06:11.658Z,68.60
2024-01-19T20:09:53.541Z,68.60
2024-01-19T20:13:35.513Z,68.60
2024-01-19T20:17:18.106Z,68.60
2024-01-19T20:21:00.238Z,68.70
2024-01-19T20:24:42.292Z,68.70
2024-01-19T20:28:24.144Z,68.80
2024-01-19T20:32:06.370Z,68.80
2024-01-19T20:35:48.354Z,68.80
2024-01-19T20:39:30.466Z,68.90
2024-01-19T20:43:12.658Z,68.90
2024-01-19T20:46:54.621Z,69.00
2024-01-19T20:50:36.487Z,69.00
2024-01-19T20:54:22.463Z,69.00
2024-01-19T20:58:06.006Z,69.00
2024-01-19T21:01:48.213Z,69.00
2024-01-19T21:05:30.403Z,69.00
2024-01-19T21:09:12.312Z,69.10
2024-01-19T21:12:54.265Z,69.00
2024-01-19T21:16:36.085Z,69.10
2024-01-19T21:20:18.541Z,69.10
2024-01-19T21:24:00.707Z,69.10
2024-01-19T21:27:42.697Z,69.00
2024-01-19T21:31:25.117Z,69.00
2024-01-19T21:35:07.405Z,69.00
2024-01-19T21:38:51.804Z,69.00
2024-01-19T21:42:33.721Z,69.00
2024-01-19T21:46:16.434Z,68.90
2024-01-19T21:49:58.793Z,69.00
2024-01-19T21:53:44.917Z,69.00
2024-01-19T21:57:26.863Z,69.00
2024-01-19T22:01:14.320Z,69.00
2024-01-19T22:04:56.598Z,69.10
2024-01-19T22:08:38.871Z,69.20
2024-01-19T22:12:20.954Z,69.10
2024-01-19T22:16:02.955Z,69.10
2024-01-19T22:19:44.780Z,69.20
2024-01-19T22:23:27.906Z,69.20
2024-01-19T22:27:09.923Z,69.40
2024-01-19T22:30:51.866Z,69.40
2024-01-19T22:34:33.779Z,69.50
2024-01-19T22:38:16.125Z,69.50
2024-01-19T22:41:58.878Z,69.60
2024-01-19T22:45:41.324Z,69.50
2024-01-19T22:49:23.677Z,69.60
2024-01-19T22:53:06.627Z,69.70
2024-01-19T22:56:49.257Z,69.70
2024-01-19T23:00:32.498Z,69.70
2024-01-19T23:04:15.365Z,69.80
2024-01-19T23:07:57.324Z,69.80
2024-01-19T23:11:39.136Z,69.80
2024-01-19T23:15:21.039Z,69.80
2024-01-19T23:19:11.092Z,69.80
2024-01-19T23:22:58.948Z,69.80
2024-01-19T23:26:41.452Z,69.80
2024-01-19T23:30:23.424Z,69.70
2024-01-19T23:34:11.936Z,69.80
2024-01-19T23:37:54.319Z,69.80
2024-01-19T23:41:36.327Z,69.80
2024-01-19T23:45:20.071Z,69.90
2024-01-19T23:49:01.990Z,69.80
2024-01-19T23:52:43.814Z,69.80
2024-01-19T23:56:25.622Z,69.90
